sensor_id;sensor_type;location;lat;lon;timestamp;P1;durP1;ratioP1;P2;durP2;ratioP2
34892;SDS011;21106;52.240;20.902;2023-09-19T00:01:09;13.10;;;8.70;;
34892;SDS011;21106;52.240;20.902;2023-09-19T00:06:37;11.70;;;9.10;;
34892;SDS011;21106;52.240;20.902;2023-09-19T00:12:06;12.10;;;9.10;;
34892;SDS011;21106;52.240;20.902;2023-09-19T00:17:35;12.60;;;8.50;;
34892;SDS011;21106;52.240;20.902;2023-09-19T00:23:06;13.10;;;8.30;;
34892;SDS011;21106;52.240;20.902;2023-09-19T00:28:34;14.60;;;8.40;;
34892;SDS011;21106;52.240;20.902;2023-09-19T00:34:01;14.40;;;8.50;;
34892;SDS011;21106;52.240;20.902;2023-09-19T00:39:36;12.10;;;8.80;;
34892;SDS011;21106;52.240;20.902;2023-09-19T00:45:04;12.10;;;9.00;;
34892;SDS011;21106;52.240;20.902;2023-09-19T00:50:31;12.80;;;8.70;;
34892;SDS011;21106;52.240;20.902;2023-09-19T00:55:58;11.50;;;9.50;;
34892;SDS011;21106;52.240;20.902;2023-09-19T01:01:25;12.50;;;9.00;;
34892;SDS011;21106;52.240;20.902;2023-09-19T01:06:51;16.90;;;9.60;;
34892;SDS011;21106;52.240;20.902;2023-09-19T01:12:22;11.80;;;9.40;;
34892;SDS011;21106;52.240;20.902;2023-09-19T01:35:01;14.90;;;9.70;;
34892;SDS011;21106;52.240;20.902;2023-09-19T01:40:30;13.30;;;9.30;;
34892;SDS011;21106;52.240;20.902;2023-09-19T01:51:45;12.60;;;9.00;;
34892;SDS011;21106;52.240;20.902;2023-09-19T01:57:22;14.30;;;9.40;;
34892;SDS011;21106;52.240;20.902;2023-09-19T02:02:54;12.00;;;8.70;;
34892;SDS011;21106;52.240;20.902;2023-09-19T02:08:24;13.20;;;8.90;;
34892;SDS011;21106;52.240;20.902;2023-09-19T02:13:52;14.40;;;10.00;;
34892;SDS011;21106;52.240;20.902;2023-09-19T02:19:20;16.40;;;9.40;;
34892;SDS011;21106;52.240;20.902;2023-09-19T02:24:47;15.30;;;9.10;;
34892;SDS011;21106;52.240;20.902;2023-09-19T02:30:14;13.40;;;10.20;;
34892;SDS011;21106;52.240;20.902;2023-09-19T02:35:42;14.90;;;10.00;;
34892;SDS011;21106;52.240;20.902;2023-09-19T02:41:09;13.90;;;9.60;;
34892;SDS011;21106;52.240;20.902;2023-09-19T02:46:36;13.00;;;9.30;;
34892;SDS011;21106;52.240;20.902;2023-09-19T02:52:03;14.60;;;9.40;;
34892;SDS011;21106;52.240;20.902;2023-09-19T02:57:30;13.50;;;9.20;;
34892;SDS011;21106;52.240;20.902;2023-09-19T03:02:59;17.90;;;9.80;;
34892;SDS011;21106;52.240;20.902;2023-09-19T03:08:26;14.50;;;10.10;;
34892;SDS011;21106;52.240;20.902;2023-09-19T03:13:53;17.30;;;10.40;;
34892;SDS011;21106;52.240;20.902;2023-09-19T03:19:20;12.40;;;9.60;;
34892;SDS011;21106;52.240;20.902;2023-09-19T03:24:47;16.70;;;10.00;;
34892;SDS011;21106;52.240;20.902;2023-09-19T03:30:14;15.20;;;9.80;;
34892;SDS011;21106;52.240;20.902;2023-09-19T03:35:41;10.90;;;9.20;;
34892;SDS011;21106;52.240;20.902;2023-09-19T03:41:08;12.90;;;9.00;;
34892;SDS011;21106;52.240;20.902;2023-09-19T03:46:35;13.60;;;9.70;;
34892;SDS011;21106;52.240;20.902;2023-09-19T03:52:02;14.80;;;10.40;;
34892;SDS011;21106;52.240;20.902;2023-09-19T03:57:29;11.60;;;9.40;;
34892;SDS011;21106;52.240;20.902;2023-09-19T04:02:56;20.40;;;10.00;;
34892;SDS011;21106;52.240;20.902;2023-09-19T04:08:23;11.60;;;10.10;;
34892;SDS011;21106;52.240;20.902;2023-09-19T04:13:50;13.90;;;9.30;;
34892;SDS011;21106;52.240;20.902;2023-09-19T04:19:17;14.40;;;10.00;;
34892;SDS011;21106;52.240;20.902;2023-09-19T04:24:43;13.60;;;10.20;;
34892;SDS011;21106;52.240;20.902;2023-09-19T04:30:10;13.90;;;9.90;;
34892;SDS011;21106;52.240;20.902;2023-09-19T04:35:38;14.10;;;10.40;;
34892;SDS011;21106;52.240;20.902;2023-09-19T04:41:05;14.80;;;10.20;;
34892;SDS011;21106;52.240;20.902;2023-09-19T04:46:31;14.90;;;10.80;;
34892;SDS011;21106;52.240;20.902;2023-09-19T04:51:58;13.00;;;10.30;;
34892;SDS011;21106;52.240;20.902;2023-09-19T04:57:24;13.60;;;10.30;;
34892;SDS011;21106;52.240;20.902;2023-09-19T05:02:52;14.30;;;9.80;;
34892;SDS011;21106;52.240;20.902;2023-09-19T05:08:19;15.40;;;10.10;;
34892;SDS011;21106;52.240;20.902;2023-09-19T05:13:45;22.10;;;10.20;;
34892;SDS011;21106;52.240;20.902;2023-09-19T05:19:12;14.50;;;10.20;;
34892;SDS011;21106;52.240;20.902;2023-09-19T05:24:38;18.50;;;11.30;;
34892;SDS011;21106;52.240;20.902;2023-09-19T05:30:05;14.50;;;9.70;;
34892;SDS011;21106;52.240;20.902;2023-09-19T05:35:33;14.80;;;9.90;;
34892;SDS011;21106;52.240;20.902;2023-09-19T05:41:00;14.30;;;9.60;;
34892;SDS011;21106;52.240;20.902;2023-09-19T05:46:27;20.50;;;9.00;;
34892;SDS011;21106;52.240;20.902;2023-09-19T05:51:56;12.40;;;9.30;;
34892;SDS011;21106;52.240;20.902;2023-09-19T05:57:22;14.90;;;8.90;;
34892;SDS011;21106;52.240;20.902;2023-09-19T06:08:18;17.00;;;9.00;;
34892;SDS011;21106;52.240;20.902;2023-09-19T06:13:44;32.80;;;10.60;;
34892;SDS011;21106;52.240;20.902;2023-09-19T06:19:13;15.20;;;9.20;;
34892;SDS011;21106;52.240;20.902;2023-09-19T06:24:40;14.60;;;9.20;;
34892;SDS011;21106;52.240;20.902;2023-09-19T06:30:06;15.80;;;9.10;;
34892;SDS011;21106;52.240;20.902;2023-09-19T06:35:34;23.50;;;10.40;;
34892;SDS011;21106;52.240;20.902;2023-09-19T06:41:01;20.00;;;10.20;;
34892;SDS011;21106;52.240;20.902;2023-09-19T06:46:31;18.80;;;10.20;;
34892;SDS011;21106;52.240;20.902;2023-09-19T06:52:01;13.50;;;9.80;;
34892;SDS011;21106;52.240;20.902;2023-09-19T06:57:29;16.60;;;9.60;;
34892;SDS011;21106;52.240;20.902;2023-09-19T07:02:57;16.40;;;8.90;;
34892;SDS011;21106;52.240;20.902;2023-09-19T07:08:25;20.30;;;9.20;;
34892;SDS011;21106;52.240;20.902;2023-09-19T07:13:51;22.30;;;10.00;;
34892;SDS011;21106;52.240;20.902;2023-09-19T07:19:18;18.10;;;9.50;;
34892;SDS011;21106;52.240;20.902;2023-09-19T07:24:45;17.20;;;10.10;;
34892;SDS011;21106;52.240;20.902;2023-09-19T07:30:12;18.10;;;10.70;;
34892;SDS011;21106;52.240;20.902;2023-09-19T07:35:39;14.40;;;9.80;;
34892;SDS011;21106;52.240;20.902;2023-09-19T07:41:08;21.60;;;10.30;;
34892;SDS011;21106;52.240;20.902;2023-09-19T07:46:37;18.70;;;10.60;;
34892;SDS011;21106;52.240;20.902;2023-09-19T07:52:04;17.20;;;11.20;;
34892;SDS011;21106;52.240;20.902;2023-09-19T07:57:31;15.30;;;11.10;;
34892;SDS011;21106;52.240;20.902;2023-09-19T08:03:00;14.90;;;10.00;;
34892;SDS011;21106;52.240;20.902;2023-09-19T08:08:27;16.70;;;9.80;;
34892;SDS011;21106;52.240;20.902;2023-09-19T08:13:54;12.30;;;10.10;;
34892;SDS011;21106;52.240;20.902;2023-09-19T08:19:20;17.50;;;9.30;;
34892;SDS011;21106;52.240;20.902;2023-09-19T08:24:49;15.00;;;8.90;;
34892;SDS011;21106;52.240;20.902;2023-09-19T08:30:16;11.50;;;8.60;;
34892;SDS011;21106;52.240;20.902;2023-09-19T08:35:44;12.20;;;8.20;;
34892;SDS011;21106;52.240;20.902;2023-09-19T08:41:12;14.00;;;8.90;;
34892;SDS011;21106;52.240;20.902;2023-09-19T08:46:40;12.80;;;8.70;;
34892;SDS011;21106;52.240;20.902;2023-09-19T08:52:10;14.10;;;8.70;;
34892;SDS011;21106;52.240;20.902;2023-09-19T08:57:40;16.10;;;8.90;;
34892;SDS011;21106;52.240;20.902;2023-09-19T09:03:09;10.70;;;8.40;;
34892;SDS011;21106;52.240;20.902;2023-09-19T09:08:35;10.70;;;8.80;;
34892;SDS011;21106;52.240;20.902;2023-09-19T09:14:02;12.40;;;8.40;;
34892;SDS011;21106;52.240;20.902;2023-09-19T09:19:28;9.70;;;7.70;;
34892;SDS011;21106;52.240;20.902;2023-09-19T09:24:57;16.10;;;8.50;;
34892;SDS011;21106;52.240;20.902;2023-09-19T09:30:36;17.10;;;10.30;;
34892;SDS011;21106;52.240;20.902;2023-09-19T09:36:03;18.20;;;7.70;;
34892;SDS011;21106;52.240;20.902;2023-09-19T09:41:37;12.40;;;8.20;;
34892;SDS011;21106;52.240;20.902;2023-09-19T09:47:05;14.60;;;7.40;;
34892;SDS011;21106;52.240;20.902;2023-09-19T09:52:53;13.10;;;8.20;;
34892;SDS011;21106;52.240;20.902;2023-09-19T09:58:22;12.10;;;7.40;;
34892;SDS011;21106;52.240;20.902;2023-09-19T10:03:58;8.50;;;5.80;;
34892;SDS011;21106;52.240;20.902;2023-09-19T10:09:26;7.80;;;4.90;;
34892;SDS011;21106;52.240;20.902;2023-09-19T10:14:56;7.50;;;5.90;;
34892;SDS011;21106;52.240;20.902;2023-09-19T10:20:24;10.90;;;5.00;;
34892;SDS011;21106;52.240;20.902;2023-09-19T10:26:03;25.20;;;15.90;;
34892;SDS011;21106;52.240;20.902;2023-09-19T10:31:31;10.60;;;5.10;;
34892;SDS011;21106;52.240;20.902;2023-09-19T10:37:02;7.40;;;4.10;;
34892;SDS011;21106;52.240;20.902;2023-09-19T10:42:32;5.50;;;4.10;;
34892;SDS011;21106;52.240;20.902;2023-09-19T10:47:59;5.40;;;3.20;;
34892;SDS011;21106;52.240;20.902;2023-09-19T10:53:27;5.70;;;3.40;;
34892;SDS011;21106;52.240;20.902;2023-09-19T10:59:07;5.90;;;3.70;;
34892;SDS011;21106;52.240;20.902;2023-09-19T11:04:36;4.70;;;3.60;;
34892;SDS011;21106;52.240;20.902;2023-09-19T11:10:03;6.40;;;3.90;;
34892;SDS011;21106;52.240;20.902;2023-09-19T11:27:19;7.10;;;4.20;;
34892;SDS011;21106;52.240;20.902;2023-09-19T11:49:40;6.30;;;4.70;;
34892;SDS011;21106;52.240;20.902;2023-09-19T11:55:07;7.10;;;4.10;;
34892;SDS011;21106;52.240;20.902;2023-09-19T12:00:37;8.90;;;4.80;;
34892;SDS011;21106;52.240;20.902;2023-09-19T12:06:10;6.30;;;4.40;;
34892;SDS011;21106;52.240;20.902;2023-09-19T12:11:40;6.30;;;4.50;;
34892;SDS011;21106;52.240;20.902;2023-09-19T12:17:08;6.00;;;4.40;;
34892;SDS011;21106;52.240;20.902;2023-09-19T12:22:44;7.90;;;4.60;;
34892;SDS011;21106;52.240;20.902;2023-09-19T12:28:12;8.00;;;5.10;;
34892;SDS011;21106;52.240;20.902;2023-09-19T12:33:39;11.30;;;5.10;;
34892;SDS011;21106;52.240;20.902;2023-09-19T12:39:06;9.00;;;5.40;;
34892;SDS011;21106;52.240;20.902;2023-09-19T12:44:38;9.50;;;4.80;;
34892;SDS011;21106;52.240;20.902;2023-09-19T12:50:07;10.70;;;4.60;;
34892;SDS011;21106;52.240;20.902;2023-09-19T12:55:34;11.60;;;4.80;;
34892;SDS011;21106;52.240;20.902;2023-09-19T13:01:04;8.70;;;5.30;;
34892;SDS011;21106;52.240;20.902;2023-09-19T13:06:40;9.70;;;4.70;;
34892;SDS011;21106;52.240;20.902;2023-09-19T13:18:10;8.20;;;5.60;;
34892;SDS011;21106;52.240;20.902;2023-09-19T13:23:39;13.30;;;5.50;;
34892;SDS011;21106;52.240;20.902;2023-09-19T13:29:06;9.60;;;5.30;;
34892;SDS011;21106;52.240;20.902;2023-09-19T13:34:32;8.10;;;5.10;;
34892;SDS011;21106;52.240;20.902;2023-09-19T13:39:59;9.90;;;5.40;;
34892;SDS011;21106;52.240;20.902;2023-09-19T13:45:26;7.10;;;5.00;;
34892;SDS011;21106;52.240;20.902;2023-09-19T13:50:54;11.00;;;5.40;;
34892;SDS011;21106;52.240;20.902;2023-09-19T13:56:22;9.70;;;5.70;;
34892;SDS011;21106;52.240;20.902;2023-09-19T14:01:48;8.50;;;5.60;;
34892;SDS011;21106;52.240;20.902;2023-09-19T14:07:15;7.30;;;5.30;;
34892;SDS011;21106;52.240;20.902;2023-09-19T14:12:44;7.90;;;4.70;;
34892;SDS011;21106;52.240;20.902;2023-09-19T14:18:11;9.90;;;4.50;;
34892;SDS011;21106;52.240;20.902;2023-09-19T14:23:38;6.50;;;3.30;;
34892;SDS011;21106;52.240;20.902;2023-09-19T14:29:05;4.30;;;3.20;;
34892;SDS011;21106;52.240;20.902;2023-09-19T14:34:34;4.70;;;2.70;;
34892;SDS011;21106;52.240;20.902;2023-09-19T14:40:03;7.60;;;2.70;;
34892;SDS011;21106;52.240;20.902;2023-09-19T14:45:37;4.60;;;2.40;;
34892;SDS011;21106;52.240;20.902;2023-09-19T14:51:05;4.40;;;2.30;;
34892;SDS011;21106;52.240;20.902;2023-09-19T14:56:33;3.90;;;2.30;;
34892;SDS011;21106;52.240;20.902;2023-09-19T15:01:59;4.90;;;2.60;;
34892;SDS011;21106;52.240;20.902;2023-09-19T15:07:26;4.80;;;2.80;;
34892;SDS011;21106;52.240;20.902;2023-09-19T15:12:55;5.00;;;3.10;;
34892;SDS011;21106;52.240;20.902;2023-09-19T15:18:21;5.30;;;2.70;;
34892;SDS011;21106;52.240;20.902;2023-09-19T15:23:48;7.50;;;3.10;;
34892;SDS011;21106;52.240;20.902;2023-09-19T15:29:15;7.40;;;3.30;;
34892;SDS011;21106;52.240;20.902;2023-09-19T15:34:42;5.00;;;2.80;;
34892;SDS011;21106;52.240;20.902;2023-09-19T15:40:08;6.80;;;3.00;;
34892;SDS011;21106;52.240;20.902;2023-09-19T15:45:37;4.60;;;2.80;;
34892;SDS011;21106;52.240;20.902;2023-09-19T15:51:04;7.00;;;4.10;;
34892;SDS011;21106;52.240;20.902;2023-09-19T15:56:30;7.40;;;3.60;;
34892;SDS011;21106;52.240;20.902;2023-09-19T16:01:59;7.20;;;3.60;;
34892;SDS011;21106;52.240;20.902;2023-09-19T16:07:25;6.70;;;2.80;;
34892;SDS011;21106;52.240;20.902;2023-09-19T16:12:52;7.90;;;2.60;;
34892;SDS011;21106;52.240;20.902;2023-09-19T16:18:19;4.30;;;2.80;;
34892;SDS011;21106;52.240;20.902;2023-09-19T16:23:46;7.40;;;2.30;;
34892;SDS011;21106;52.240;20.902;2023-09-19T16:29:12;6.10;;;2.60;;
34892;SDS011;21106;52.240;20.902;2023-09-19T16:34:39;7.90;;;3.00;;
34892;SDS011;21106;52.240;20.902;2023-09-19T16:40:07;8.40;;;3.70;;
34892;SDS011;21106;52.240;20.902;2023-09-19T16:45:35;6.80;;;3.30;;
34892;SDS011;21106;52.240;20.902;2023-09-19T16:51:02;11.60;;;3.60;;
34892;SDS011;21106;52.240;20.902;2023-09-19T16:56:29;9.40;;;3.90;;
34892;SDS011;21106;52.240;20.902;2023-09-19T17:02:03;10.90;;;4.60;;
34892;SDS011;21106;52.240;20.902;2023-09-19T17:07:37;7.40;;;3.30;;
34892;SDS011;21106;52.240;20.902;2023-09-19T17:13:04;6.10;;;3.00;;
34892;SDS011;21106;52.240;20.902;2023-09-19T17:18:36;8.90;;;2.80;;
34892;SDS011;21106;52.240;20.902;2023-09-19T17:24:04;13.20;;;3.50;;
34892;SDS011;21106;52.240;20.902;2023-09-19T17:29:34;9.50;;;2.90;;
34892;SDS011;21106;52.240;20.902;2023-09-19T17:35:01;8.20;;;3.10;;
34892;SDS011;21106;52.240;20.902;2023-09-19T17:40:27;7.60;;;3.00;;
34892;SDS011;21106;52.240;20.902;2023-09-19T17:51:26;9.00;;;3.30;;
34892;SDS011;21106;52.240;20.902;2023-09-19T17:56:55;7.90;;;3.40;;
34892;SDS011;21106;52.240;20.902;2023-09-19T18:02:30;9.10;;;3.70;;
34892;SDS011;21106;52.240;20.902;2023-09-19T18:07:57;11.40;;;2.50;;
34892;SDS011;21106;52.240;20.902;2023-09-19T18:13:23;7.30;;;3.30;;
34892;SDS011;21106;52.240;20.902;2023-09-19T18:18:58;7.10;;;2.20;;
34892;SDS011;21106;52.240;20.902;2023-09-19T18:24:27;8.00;;;3.00;;
34892;SDS011;21106;52.240;20.902;2023-09-19T18:29:53;8.10;;;2.40;;
34892;SDS011;21106;52.240;20.902;2023-09-19T18:35:20;5.70;;;3.00;;
34892;SDS011;21106;52.240;20.902;2023-09-19T18:40:49;3.00;;;1.90;;
34892;SDS011;21106;52.240;20.902;2023-09-19T18:46:21;10.30;;;2.60;;
34892;SDS011;21106;52.240;20.902;2023-09-19T18:51:48;6.30;;;2.40;;
34892;SDS011;21106;52.240;20.902;2023-09-19T18:57:15;10.30;;;2.30;;
34892;SDS011;21106;52.240;20.902;2023-09-19T19:02:52;8.00;;;2.30;;
34892;SDS011;21106;52.240;20.902;2023-09-19T19:08:19;11.80;;;3.00;;
34892;SDS011;21106;52.240;20.902;2023-09-19T19:13:46;10.00;;;3.40;;
34892;SDS011;21106;52.240;20.902;2023-09-19T19:19:16;8.40;;;3.30;;
34892;SDS011;21106;52.240;20.902;2023-09-19T19:24:42;10.20;;;3.70;;
34892;SDS011;21106;52.240;20.902;2023-09-19T19:30:10;10.50;;;4.40;;
34892;SDS011;21106;52.240;20.902;2023-09-19T19:35:38;8.60;;;3.90;;
34892;SDS011;21106;52.240;20.902;2023-09-19T19:41:07;9.40;;;4.10;;
34892;SDS011;21106;52.240;20.902;2023-09-19T19:46:34;10.10;;;3.70;;
34892;SDS011;21106;52.240;20.902;2023-09-19T19:52:01;8.90;;;3.50;;
34892;SDS011;21106;52.240;20.902;2023-09-19T19:57:27;11.70;;;4.30;;
34892;SDS011;21106;52.240;20.902;2023-09-19T20:02:55;8.90;;;4.20;;
34892;SDS011;21106;52.240;20.902;2023-09-19T20:08:22;9.80;;;4.90;;
34892;SDS011;21106;52.240;20.902;2023-09-19T20:13:52;8.50;;;4.00;;
34892;SDS011;21106;52.240;20.902;2023-09-19T20:19:18;6.20;;;2.90;;
34892;SDS011;21106;52.240;20.902;2023-09-19T20:24:46;10.60;;;5.20;;
34892;SDS011;21106;52.240;20.902;2023-09-19T20:30:13;6.40;;;3.50;;
34892;SDS011;21106;52.240;20.902;2023-09-19T20:35:40;11.80;;;3.00;;
34892;SDS011;21106;52.240;20.902;2023-09-19T20:41:16;9.30;;;3.70;;
34892;SDS011;21106;52.240;20.902;2023-09-19T20:46:44;9.30;;;3.80;;
34892;SDS011;21106;52.240;20.902;2023-09-19T20:52:20;9.30;;;4.00;;
34892;SDS011;21106;52.240;20.902;2023-09-19T20:57:49;12.60;;;3.70;;
34892;SDS011;21106;52.240;20.902;2023-09-19T21:03:15;10.50;;;3.50;;
34892;SDS011;21106;52.240;20.902;2023-09-19T21:08:42;11.70;;;3.50;;
34892;SDS011;21106;52.240;20.902;2023-09-19T21:14:09;12.40;;;4.40;;
34892;SDS011;21106;52.240;20.902;2023-09-19T21:19:36;10.50;;;5.30;;
34892;SDS011;21106;52.240;20.902;2023-09-19T21:25:03;10.90;;;4.80;;
34892;SDS011;21106;52.240;20.902;2023-09-19T21:30:32;9.10;;;4.00;;
34892;SDS011;21106;52.240;20.902;2023-09-19T21:35:58;10.50;;;5.10;;
34892;SDS011;21106;52.240;20.902;2023-09-19T21:41:28;9.40;;;4.20;;
34892;SDS011;21106;52.240;20.902;2023-09-19T21:46:55;10.40;;;4.30;;
34892;SDS011;21106;52.240;20.902;2023-09-19T21:52:24;10.50;;;3.60;;
34892;SDS011;21106;52.240;20.902;2023-09-19T21:57:51;7.20;;;3.30;;
34892;SDS011;21106;52.240;20.902;2023-09-19T22:03:17;8.70;;;3.90;;
34892;SDS011;21106;52.240;20.902;2023-09-19T22:08:45;8.10;;;3.20;;
34892;SDS011;21106;52.240;20.902;2023-09-19T22:14:14;7.30;;;3.10;;
34892;SDS011;21106;52.240;20.902;2023-09-19T22:19:40;8.40;;;3.20;;
34892;SDS011;21106;52.240;20.902;2023-09-19T22:25:10;7.70;;;3.60;;
34892;SDS011;21106;52.240;20.902;2023-09-19T22:30:37;8.70;;;3.50;;
34892;SDS011;21106;52.240;20.902;2023-09-19T22:36:07;6.90;;;3.70;;
34892;SDS011;21106;52.240;20.902;2023-09-19T22:41:34;11.90;;;3.60;;
34892;SDS011;21106;52.240;20.902;2023-09-19T22:47:01;10.10;;;3.30;;
34892;SDS011;21106;52.240;20.902;2023-09-19T22:52:28;8.10;;;3.40;;
34892;SDS011;21106;52.240;20.902;2023-09-19T22:57:55;6.00;;;3.20;;
34892;SDS011;21106;52.240;20.902;2023-09-19T23:03:22;9.10;;;3.20;;
34892;SDS011;21106;52.240;20.902;2023-09-19T23:09:00;5.10;;;3.10;;
34892;SDS011;21106;52.240;20.902;2023-09-19T23:14:27;5.00;;;3.00;;
34892;SDS011;21106;52.240;20.902;2023-09-19T23:20:04;4.80;;;3.30;;
34892;SDS011;21106;52.240;20.902;2023-09-19T23:25:35;7.40;;;3.50;;
34892;SDS011;21106;52.240;20.902;2023-09-19T23:31:02;5.60;;;3.00;;
34892;SDS011;21106;52.240;20.902;2023-09-19T23:36:32;9.90;;;4.80;;
34892;SDS011;21106;52.240;20.902;2023-09-19T23:41:59;6.90;;;3.40;;
34892;SDS011;21106;52.240;20.902;2023-09-19T23:47:29;6.10;;;3.10;;
34892;SDS011;21106;52.240;20.902;2023-09-19T23:52:55;8.40;;;2.80;;
34892;SDS011;21106;52.240;20.902;2023-09-19T23:58:22;7.10;;;3.50;;
